createdAt,value
2017-07-17T00:01:42.045Z,15.30
2017-07-17T00:06:29.412Z,15.00
2017-07-17T00:11:16.014Z,15.00
2017-07-17T00:16:03.727Z,14.90
2017-07-17T00:20:50.343Z,14.90
2017-07-17T00:25:36.995Z,14.90
2017-07-17T00:30:24.341Z,14.70
2017-07-17T00:35:10.961Z,14.70
2017-07-17T00:39:57.595Z,14.50
2017-07-17T00:44:44.197Z,14.30
2017-07-17T00:49:31.993Z,13.80
2017-07-17T00:54:18.721Z,13.80
2017-07-17T00:59:05.410Z,13.90
2017-07-17T01:03:52.068Z,13.90
2017-07-17T01:08:38.659Z,13.80
2017-07-17T01:13:25.572Z,13.80
2017-07-17T01:18:12.201Z,13.90
2017-07-17T01:22:58.928Z,13.90
2017-07-17T01:27:45.662Z,13.80
2017-07-17T01:32:32.296Z,13.70
2017-07-17T01:37:19.323Z,13.40
2017-07-17T01:42:05.939Z,13.50
2017-07-17T01:46:52.654Z,13.50
2017-07-17T01:51:39.306Z,13.50
2017-07-17T01:56:25.934Z,13.40
2017-07-17T02:01:13.446Z,13.30
2017-07-17T02:06:00.473Z,13.30
2017-07-17T02:10:47.086Z,13.00
2017-07-17T02:15:33.683Z,13.00
2017-07-17T02:20:20.339Z,13.10
2017-07-17T02:25:06.956Z,12.90
2017-07-17T02:29:53.868Z,13.00
2017-07-17T02:34:40.602Z,13.00
2017-07-17T02:39:27.276Z,13.10
2017-07-17T02:44:13.929Z,13.00
2017-07-17T02:49:00.561Z,12.80
2017-07-17T02:53:47.180Z,12.60
2017-07-17T02:58:33.835Z,12.50
2017-07-17T03:03:21.765Z,12.30
2017-07-17T03:08:08.398Z,12.30
2017-07-17T03:12:55.846Z,12.40
2017-07-17T03:17:43.237Z,12.50
2017-07-17T03:22:29.885Z,12.40
2017-07-17T03:27:16.516Z,12.40
2017-07-17T03:32:03.223Z,12.40
2017-07-17T03:36:50.210Z,12.30
2017-07-17T03:41:36.860Z,12.20
2017-07-17T03:46:23.541Z,12.10
2017-07-17T03:51:10.261Z,12.10
2017-07-17T03:56:03.716Z,12.10
2017-07-17T04:00:51.279Z,12.00
2017-07-17T04:05:37.902Z,12.00
2017-07-17T04:10:24.499Z,12.20
2017-07-17T04:15:11.891Z,12.30
2017-07-17T04:19:58.528Z,12.20
2017-07-17T04:24:45.655Z,12.30
2017-07-17T04:29:32.242Z,12.30
2017-07-17T04:34:18.902Z,12.30
2017-07-17T04:39:05.589Z,12.30
2017-07-17T04:43:52.215Z,12.40
2017-07-17T04:48:39.265Z,12.50
2017-07-17T04:53:25.895Z,12.50
2017-07-17T04:58:12.602Z,12.50
2017-07-17T05:02:59.319Z,12.70
2017-07-17T05:07:45.948Z,12.80
2017-07-17T05:12:32.600Z,13.00
2017-07-17T05:17:20.308Z,13.60
2017-07-17T05:22:06.942Z,13.60
2017-07-17T05:26:53.601Z,14.00
2017-07-17T05:31:40.340Z,14.30
2017-07-17T05:36:26.977Z,14.50
2017-07-17T05:41:13.918Z,14.80
2017-07-17T05:46:00.720Z,14.90
2017-07-17T05:50:47.432Z,15.30
2017-07-17T05:55:34.121Z,15.50
2017-07-17T06:00:21.522Z,16.00
2017-07-17T06:05:08.148Z,16.00
2017-07-17T06:09:55.321Z,16.20
2017-07-17T06:14:42.822Z,16.60
2017-07-17T06:19:29.472Z,16.60
2017-07-17T06:24:17.027Z,16.90
2017-07-17T06:29:03.655Z,16.90
2017-07-17T06:33:50.305Z,17.10
2017-07-17T06:38:36.916Z,17.60
2017-07-17T06:43:23.589Z,18.00
2017-07-17T06:48:10.204Z,18.70
2017-07-17T06:52:57.382Z,19.00
2017-07-17T06:57:43.987Z,19.10
2017-07-17T07:02:30.588Z,19.60
2017-07-17T07:07:18.001Z,20.50
2017-07-17T07:12:04.653Z,20.40
2017-07-17T07:16:52.459Z,21.30
2017-07-17T07:21:39.113Z,21.20
2017-07-17T07:26:25.866Z,21.90
2017-07-17T07:31:12.615Z,22.00
2017-07-17T07:35:59.331Z,22.40
2017-07-17T07:40:46.282Z,21.60
2017-07-17T07:45:32.989Z,21.80
2017-07-17T07:50:19.616Z,22.30
2017-07-17T07:55:06.243Z,22.80
2017-07-17T07:59:52.876Z,22.90
2017-07-17T08:04:39.489Z,23.50
2017-07-17T08:09:26.121Z,23.00
2017-07-17T08:14:13.493Z,24.00
2017-07-17T08:19:00.460Z,24.00
2017-07-17T08:23:47.061Z,24.40
2017-07-17T08:28:33.710Z,24.20
2017-07-17T08:33:20.323Z,24.50
2017-07-17T08:38:06.916Z,24.80
2017-07-17T08:42:53.552Z,25.40
2017-07-17T08:47:40.210Z,24.50
2017-07-17T08:52:26.847Z,24.90
2017-07-17T08:57:13.498Z,25.90
2017-07-17T09:02:00.104Z,25.40
2017-07-17T09:06:46.727Z,26.00
2017-07-17T09:11:33.380Z,26.80
2017-07-17T09:16:20.021Z,27.20
2017-07-17T09:21:06.705Z,26.90
2017-07-17T09:25:53.343Z,26.60
2017-07-17T09:30:39.987Z,26.40
2017-07-17T09:35:27.716Z,26.40
2017-07-17T09:40:14.360Z,26.40
2017-07-17T09:45:01.723Z,27.40
2017-07-17T09:49:48.357Z,27.40
2017-07-17T09:54:35.004Z,27.10
2017-07-17T09:59:21.592Z,27.10
2017-07-17T10:04:08.553Z,26.70
2017-07-17T10:08:55.617Z,26.30
2017-07-17T10:13:42.259Z,27.10
2017-07-17T10:18:28.996Z,27.40
2017-07-17T10:23:15.757Z,27.50
2017-07-17T10:28:02.672Z,28.30
2017-07-17T10:32:49.497Z,28.20
2017-07-17T10:37:36.167Z,28.10
2017-07-17T10:42:22.849Z,28.30
2017-07-17T10:47:09.528Z,28.20
2017-07-17T10:51:56.499Z,28.90
2017-07-17T10:56:43.115Z,28.30
2017-07-17T11:01:29.738Z,28.70
2017-07-17T11:06:16.349Z,27.70
2017-07-17T11:11:02.952Z,28.10
2017-07-17T11:15:49.596Z,28.60
2017-07-17T11:20:36.519Z,28.00
2017-07-17T11:25:23.172Z,29.10
2017-07-17T11:30:10.554Z,29.10
2017-07-17T11:34:57.231Z,29.10
2017-07-17T11:39:44.695Z,30.10
2017-07-17T11:44:32.564Z,30.10
2017-07-17T11:59:04.692Z,30.50
2017-07-17T12:03:51.345Z,30.50
2017-07-17T12:08:38.281Z,30.70
2017-07-17T12:13:24.931Z,30.20
2017-07-17T12:18:12.328Z,29.60
2017-07-17T12:22:59.005Z,29.60
2017-07-17T12:27:45.730Z,29.30
2017-07-17T12:32:32.712Z,29.50
2017-07-17T12:37:19.362Z,29.40
2017-07-17T12:42:06.744Z,29.60
2017-07-17T12:46:53.388Z,29.60
2017-07-17T12:51:40.047Z,29.30
2017-07-17T12:56:26.714Z,29.00
2017-07-17T13:01:13.755Z,28.80
2017-07-17T13:06:00.444Z,28.70
2017-07-17T13:10:47.187Z,28.60
2017-07-17T13:15:33.895Z,28.10
2017-07-17T13:20:21.490Z,28.00
2017-07-17T13:25:08.130Z,27.70
2017-07-17T13:29:55.933Z,27.70
2017-07-17T13:34:42.552Z,27.60
2017-07-17T13:39:29.190Z,27.60
2017-07-17T13:44:16.738Z,28.00
2017-07-17T13:49:03.697Z,27.90
2017-07-17T13:53:50.376Z,28.10
2017-07-17T13:58:37.293Z,27.90
2017-07-17T14:03:23.942Z,27.50
2017-07-17T14:08:11.327Z,27.20
2017-07-17T14:12:58.277Z,27.10
2017-07-17T14:17:44.931Z,27.00
2017-07-17T14:22:31.721Z,26.90
2017-07-17T14:27:18.365Z,26.90
2017-07-17T14:32:06.200Z,26.80
2017-07-17T14:36:52.813Z,26.80
2017-07-17T14:41:39.456Z,26.80
2017-07-17T14:46:26.389Z,26.50
2017-07-17T14:51:13.789Z,26.50
2017-07-17T14:56:00.437Z,26.50
2017-07-17T15:00:47.450Z,26.60
2017-07-17T15:05:41.167Z,26.70
2017-07-17T15:10:27.841Z,26.80
2017-07-17T15:15:14.511Z,26.70
2017-07-17T15:20:01.524Z,26.40
2017-07-17T15:24:48.893Z,26.40
2017-07-17T15:29:35.560Z,26.40
2017-07-17T15:34:22.207Z,26.50
2017-07-17T15:39:08.895Z,26.70
2017-07-17T15:43:55.953Z,26.60
2017-07-17T15:48:42.589Z,26.70
2017-07-17T15:53:29.499Z,26.60
2017-07-17T15:58:16.584Z,26.30
2017-07-17T16:03:03.343Z,26.30
2017-07-17T16:07:50.753Z,26.30
2017-07-17T16:12:37.402Z,26.30
2017-07-17T16:17:24.294Z,26.10
2017-07-17T16:22:10.961Z,25.80
2017-07-17T16:26:57.764Z,25.70
2017-07-17T16:31:44.469Z,25.50
2017-07-17T16:36:31.202Z,25.60
2017-07-17T16:41:17.927Z,25.90
2017-07-17T16:46:04.615Z,26.10
2017-07-17T16:50:51.317Z,26.10
2017-07-17T16:55:38.417Z,26.00
2017-07-17T17:00:25.798Z,26.00
2017-07-17T17:05:12.506Z,26.00
2017-07-17T17:09:59.218Z,25.90
2017-07-17T17:14:46.261Z,26.00
2017-07-17T17:19:32.882Z,26.00
2017-07-17T17:24:19.717Z,25.90
2017-07-17T17:29:06.484Z,25.60
2017-07-17T17:33:53.140Z,25.50
2017-07-17T17:38:39.937Z,25.50
2017-07-17T17:43:26.667Z,25.50
2017-07-17T17:48:14.227Z,25.70
2017-07-17T17:53:01.457Z,25.70
2017-07-17T17:57:48.230Z,25.80
2017-07-17T18:02:35.273Z,25.80
2017-07-17T18:07:22.700Z,25.60
2017-07-17T18:12:09.318Z,25.50
2017-07-17T18:16:55.969Z,25.30
2017-07-17T18:21:42.642Z,24.90
2017-07-17T18:26:29.384Z,24.50
2017-07-17T18:31:16.043Z,24.10
2017-07-17T18:36:03.457Z,23.60
2017-07-17T18:40:50.164Z,23.50
2017-07-17T18:45:36.891Z,23.20
2017-07-17T18:50:23.609Z,23.20
2017-07-17T18:55:10.467Z,23.10
2017-07-17T18:59:58.001Z,22.60
2017-07-17T19:04:44.668Z,22.60
2017-07-17T19:09:31.531Z,22.50
2017-07-17T19:14:18.314Z,22.30
2017-07-17T19:19:05.024Z,22.10
2017-07-17T19:23:51.715Z,21.90
2017-07-17T19:28:39.168Z,21.50
2017-07-17T19:33:26.776Z,21.30
2017-07-17T19:38:13.470Z,21.30
2017-07-17T19:43:00.145Z,21.10
2017-07-17T19:47:47.564Z,20.90
2017-07-17T19:52:34.293Z,20.90
2017-07-17T19:57:20.997Z,20.70
2017-07-17T20:02:07.637Z,20.40
2017-07-17T20:06:54.384Z,20.20
2017-07-17T20:11:41.078Z,20.20
2017-07-17T20:16:27.810Z,20.10
2017-07-17T20:21:15.236Z,19.60
2017-07-17T20:26:02.127Z,19.60
2017-07-17T20:30:48.867Z,19.50
2017-07-17T20:35:35.554Z,19.50
2017-07-17T20:40:22.206Z,19.50
2017-07-17T20:45:08.850Z,19.50
2017-07-17T20:49:55.574Z,19.40
2017-07-17T20:54:42.809Z,19.20
2017-07-17T20:59:29.528Z,19.20
2017-07-17T21:04:16.212Z,19.20
2017-07-17T21:09:02.894Z,19.10
2017-07-17T21:13:50.354Z,18.70
2017-07-17T21:18:36.963Z,18.60
2017-07-17T21:23:23.705Z,18.60
2017-07-17T21:28:10.349Z,18.50
2017-07-17T21:32:56.977Z,18.50
2017-07-17T21:37:43.665Z,18.30
2017-07-17T21:42:30.326Z,18.20
2017-07-17T21:47:17.790Z,18.20
2017-07-17T21:52:05.214Z,18.10
2017-07-17T21:56:51.888Z,18.10
2017-07-17T22:01:38.725Z,18.00
2017-07-17T22:06:25.365Z,18.00
2017-07-17T22:11:12.038Z,17.90
2017-07-17T22:15:58.723Z,17.70
2017-07-17T22:20:45.406Z,17.40
2017-07-17T22:25:32.093Z,17.30
2017-07-17T22:30:18.754Z,17.50
2017-07-17T22:35:05.378Z,17.20
2017-07-17T22:39:52.026Z,17.10
2017-07-17T22:44:38.704Z,17.10
2017-07-17T22:49:25.367Z,17.20
2017-07-17T22:54:12.006Z,17.10
2017-07-17T22:58:59.406Z,17.00
2017-07-17T23:03:46.109Z,16.90
2017-07-17T23:08:32.738Z,16.90
2017-07-17T23:13:19.378Z,16.60
2017-07-17T23:18:06.019Z,16.60
2017-07-17T23:22:53.392Z,16.60
2017-07-17T23:27:40.054Z,16.60
2017-07-17T23:32:26.706Z,16.60
2017-07-17T23:37:13.342Z,16.40
2017-07-17T23:42:00.048Z,16.30
2017-07-17T23:46:47.452Z,16.40
2017-07-17T23:51:34.097Z,16.30
2017-07-17T23:56:21.600Z,16.30
